Angola, New York
Current Conditions -  °F | °C
As of 5:53 PM on Sunday 21 Dec 2014 (Local Time) from KDKK Reporting Station
Overcast Overcast  
Wind Chill: -4°   Ceiling: 2500
Heat Index: -1°   Visibility: 10mi
Dew Point: -5°   Wind: 6mph
Humidity: 72%   Direction: 110°ESE
Pressure: 30.29"   Gusts: NA
Location:  42.64°N, 79.03°W
Report Text: KDKK 212253Z AUTO 11005KT 10SM OVC025 M01/M05 A3029 RMK AO2 SLP267 T10061050 $
Loading
Personal Weather Stations






























Interactive Weather Map New forecast layout! Learn more

10-Day Weather Forecast

Advertisements
Track Severe Weather on mobile